createdAt,value
2022-08-31T00:03:57.392Z,6.30
2022-08-31T00:13:56.029Z,6.68
2022-08-31T00:18:54.631Z,5.68
2022-08-31T00:23:53.189Z,6.60
2022-08-31T00:28:53.318Z,6.35
2022-08-31T00:33:52.713Z,7.15
2022-08-31T00:38:52.024Z,6.82
2022-08-31T00:43:54.417Z,6.55
2022-08-31T00:48:59.606Z,6.13
2022-08-31T00:53:58.371Z,6.70
2022-08-31T00:58:58.162Z,7.53
2022-08-31T01:03:56.328Z,6.28
2022-08-31T01:08:56.898Z,6.47
2022-08-31T01:13:55.557Z,6.50
2022-08-31T01:18:58.265Z,5.72
2022-08-31T01:24:01.227Z,6.00
2022-08-31T01:29:04.988Z,6.50
2022-08-31T01:34:03.254Z,6.85
2022-08-31T01:39:03.034Z,7.05
2022-08-31T01:44:01.161Z,6.68
2022-08-31T01:49:00.877Z,6.72
2022-08-31T01:53:59.025Z,7.43
2022-08-31T01:58:59.234Z,7.55
2022-08-31T02:04:04.215Z,7.50
2022-08-31T02:09:03.592Z,7.55
2022-08-31T02:14:03.325Z,7.55
2022-08-31T02:19:01.659Z,7.22
2022-08-31T02:23:59.982Z,7.75
2022-08-31T02:28:58.073Z,7.75
2022-08-31T02:33:57.662Z,7.07
2022-08-31T02:38:55.954Z,7.50
2022-08-31T02:43:54.269Z,7.88
2022-08-31T02:48:53.001Z,7.90
2022-08-31T02:53:54.007Z,7.55
2022-08-31T02:58:55.186Z,8.48
2022-08-31T03:03:55.191Z,8.57
2022-08-31T03:08:55.131Z,8.02
2022-08-31T03:13:58.484Z,7.18
2022-08-31T03:18:57.077Z,7.68
2022-08-31T03:23:56.652Z,8.95
2022-08-31T03:28:55.979Z,7.72
2022-08-31T03:34:15.958Z,8.07
2022-08-31T03:39:16.072Z,8.05
2022-08-31T03:44:14.698Z,8.85
2022-08-31T03:49:18.485Z,8.70
2022-08-31T03:54:33.070Z,8.33
2022-08-31T03:59:31.227Z,8.73
2022-08-31T04:05:01.826Z,8.38
2022-08-31T04:10:24.329Z,9.27
2022-08-31T04:15:41.191Z,9.57
2022-08-31T04:20:57.849Z,9.23
2022-08-31T04:25:58.441Z,10.23
2022-08-31T04:30:57.335Z,10.38
2022-08-31T04:35:55.480Z,10.10
2022-08-31T04:40:53.771Z,9.75
2022-08-31T04:45:53.381Z,9.68
2022-08-31T04:50:52.706Z,9.77
2022-08-31T04:55:50.796Z,9.40
2022-08-31T05:00:49.769Z,9.10
2022-08-31T05:06:17.046Z,9.88
2022-08-31T05:11:19.030Z,10.20
2022-08-31T05:16:22.488Z,11.00
2022-08-31T05:21:28.323Z,11.02
2022-08-31T05:26:28.311Z,10.82
2022-08-31T05:31:30.127Z,11.05
2022-08-31T05:36:31.694Z,11.20
2022-08-31T05:41:31.088Z,9.55
2022-08-31T05:46:30.218Z,10.00
2022-08-31T05:51:28.904Z,10.07
2022-08-31T05:56:29.415Z,9.68
2022-08-31T06:01:31.323Z,11.05
2022-08-31T06:06:45.758Z,10.10
2022-08-31T06:11:48.034Z,9.98
2022-08-31T06:16:48.234Z,8.95
2022-08-31T06:21:51.028Z,8.50
2022-08-31T06:27:10.319Z,9.32
2022-08-31T06:32:11.070Z,8.65
2022-08-31T06:37:19.067Z,9.40
2022-08-31T06:42:41.753Z,9.30
2022-08-31T06:48:01.323Z,9.32
2022-08-31T06:52:59.811Z,8.63
2022-08-31T06:58:35.123Z,7.95
2022-08-31T07:03:58.169Z,8.32
2022-08-31T07:08:58.948Z,8.15
2022-08-31T07:13:59.843Z,11.40
2022-08-31T07:19:01.776Z,9.20
2022-08-31T07:24:02.596Z,8.07
2022-08-31T07:29:05.172Z,8.18
2022-08-31T07:34:08.249Z,8.48
2022-08-31T07:39:32.378Z,8.70
2022-08-31T07:44:34.636Z,7.38
2022-08-31T07:49:35.502Z,8.30
2022-08-31T07:54:39.961Z,6.95
2022-08-31T08:00:10.474Z,8.23
2022-08-31T08:05:21.171Z,7.15
2022-08-31T08:10:52.577Z,7.30
2022-08-31T08:16:15.426Z,7.70
2022-08-31T08:21:22.702Z,6.95
2022-08-31T08:26:22.404Z,7.55
2022-08-31T08:31:40.915Z,7.38
2022-08-31T08:36:40.754Z,6.45
2022-08-31T08:41:42.961Z,6.80
2022-08-31T08:46:48.095Z,6.53
2022-08-31T08:51:50.222Z,7.22
2022-08-31T08:56:49.783Z,8.20
2022-08-31T09:01:56.425Z,7.53
2022-08-31T09:07:12.029Z,6.95
2022-08-31T09:12:26.356Z,7.10
2022-08-31T09:17:41.401Z,7.32
2022-08-31T09:22:47.167Z,7.38
2022-08-31T09:27:57.575Z,6.70
2022-08-31T09:32:58.905Z,7.68
2022-08-31T09:38:02.511Z,6.78
2022-08-31T09:43:07.100Z,7.22
2022-08-31T09:48:09.169Z,6.82
2022-08-31T09:53:31.417Z,8.10
2022-08-31T09:58:31.028Z,6.40
2022-08-31T10:03:31.789Z,6.60
2022-08-31T10:08:42.283Z,6.70
2022-08-31T10:13:43.390Z,6.60
2022-08-31T10:18:56.216Z,7.03
2022-08-31T10:24:03.277Z,6.82
2022-08-31T10:29:06.081Z,7.25
2022-08-31T10:34:29.154Z,6.40
2022-08-31T10:39:34.147Z,6.03
2022-08-31T10:44:42.341Z,7.55
2022-08-31T10:49:57.780Z,6.30
2022-08-31T10:55:06.744Z,5.72
2022-08-31T11:00:08.995Z,6.72
2022-08-31T11:05:23.033Z,5.78
2022-08-31T11:10:33.337Z,6.32
2022-08-31T11:15:57.156Z,6.28
2022-08-31T11:21:17.354Z,6.25
2022-08-31T11:26:52.879Z,6.57
2022-08-31T11:31:55.205Z,6.43
2022-08-31T11:36:56.769Z,5.68
2022-08-31T11:41:55.734Z,5.40
2022-08-31T11:47:06.986Z,6.47
2022-08-31T11:52:10.522Z,6.35
2022-08-31T11:57:11.305Z,6.00
2022-08-31T12:02:44.433Z,5.88
2022-08-31T12:07:48.387Z,4.82
2022-08-31T12:13:18.903Z,5.60
2022-08-31T12:18:31.121Z,5.70
2022-08-31T12:23:40.041Z,5.20
2022-08-31T12:28:56.286Z,6.00
2022-08-31T12:34:00.848Z,5.47
2022-08-31T12:39:10.199Z,5.22
2022-08-31T12:44:14.274Z,5.25
2022-08-31T12:49:31.496Z,5.22
2022-08-31T12:54:58.528Z,5.72
2022-08-31T13:00:04.495Z,5.05
2022-08-31T13:05:03.513Z,4.90
2022-08-31T13:10:11.656Z,5.55
2022-08-31T13:15:13.586Z,5.82
2022-08-31T13:20:19.820Z,4.67
2022-08-31T13:25:35.930Z,4.97
2022-08-31T13:30:39.739Z,4.70
2022-08-31T13:35:39.719Z,4.88
2022-08-31T13:40:42.117Z,5.00
2022-08-31T13:45:53.181Z,4.95
2022-08-31T13:50:59.298Z,4.88
2022-08-31T13:55:59.028Z,4.80
2022-08-31T14:01:19.181Z,4.75
2022-08-31T14:06:24.181Z,5.15
2022-08-31T14:11:28.527Z,4.95
2022-08-31T14:16:35.770Z,4.95
2022-08-31T14:21:36.040Z,5.03
2022-08-31T14:26:41.617Z,5.97
2022-08-31T14:31:45.059Z,4.78
2022-08-31T14:36:50.445Z,4.77
2022-08-31T14:41:50.345Z,4.50
2022-08-31T14:46:48.594Z,5.40
2022-08-31T14:51:47.349Z,5.07
2022-08-31T14:56:54.569Z,4.85
2022-08-31T15:01:57.931Z,5.30
2022-08-31T15:07:09.911Z,5.68
2022-08-31T15:12:14.716Z,5.72
2022-08-31T15:17:19.962Z,5.35
2022-08-31T15:22:19.065Z,5.32
2022-08-31T15:27:18.989Z,4.60
2022-08-31T15:32:18.653Z,4.95
2022-08-31T15:37:17.899Z,4.80
2022-08-31T15:42:20.888Z,5.10
2022-08-31T15:47:36.798Z,5.68
2022-08-31T15:52:36.929Z,6.05
2022-08-31T15:57:36.883Z,5.78
2022-08-31T16:02:36.201Z,5.28
2022-08-31T16:07:35.160Z,5.53
2022-08-31T16:12:35.095Z,6.32
2022-08-31T16:17:34.726Z,5.53
2022-08-31T16:22:33.101Z,6.45
2022-08-31T16:27:31.334Z,6.05
2022-08-31T16:32:30.458Z,6.63
2022-08-31T16:37:30.137Z,5.00
2022-08-31T16:42:28.610Z,5.88
2022-08-31T16:47:26.885Z,6.45
2022-08-31T16:52:27.428Z,5.28
2022-08-31T16:57:28.823Z,6.40
2022-08-31T17:02:28.115Z,6.75
2022-08-31T17:07:26.437Z,5.95
2022-08-31T17:12:27.405Z,7.18
2022-08-31T17:17:27.789Z,7.63
2022-08-31T17:22:32.423Z,6.65
2022-08-31T17:27:35.145Z,7.00
2022-08-31T17:32:34.982Z,6.65
2022-08-31T17:37:36.520Z,6.32
2022-08-31T17:42:36.764Z,6.28
2022-08-31T17:47:36.124Z,5.93
2022-08-31T17:52:34.932Z,6.35
2022-08-31T17:57:33.391Z,5.63
2022-08-31T18:02:35.061Z,7.03
2022-08-31T18:07:33.342Z,6.85
2022-08-31T18:12:31.546Z,6.32
2022-08-31T18:17:30.194Z,6.72
2022-08-31T18:22:30.279Z,5.47
2022-08-31T18:27:29.325Z,5.85
2022-08-31T18:32:36.276Z,6.47
2022-08-31T18:37:36.034Z,5.55
2022-08-31T18:42:51.778Z,5.20
2022-08-31T18:53:29.030Z,5.53
2022-08-31T18:58:28.891Z,5.78
2022-08-31T19:03:28.374Z,5.18
2022-08-31T19:08:28.475Z,5.53
2022-08-31T19:13:30.458Z,5.50
2022-08-31T19:18:28.702Z,6.30
2022-08-31T19:23:28.538Z,6.95
2022-08-31T19:28:26.861Z,5.88
2022-08-31T19:33:26.184Z,5.30
2022-08-31T19:38:24.942Z,5.47
2022-08-31T19:48:44.353Z,5.10
2022-08-31T19:53:45.124Z,5.10
2022-08-31T19:58:47.099Z,4.82
2022-08-31T20:03:46.040Z,5.22
2022-08-31T20:08:45.911Z,5.22
2022-08-31T20:13:45.564Z,5.45
2022-08-31T20:18:47.029Z,5.13
2022-08-31T20:23:47.865Z,5.10
2022-08-31T20:28:47.479Z,5.75
2022-08-31T20:33:46.994Z,4.97
2022-08-31T20:38:45.199Z,4.63
2022-08-31T20:43:46.096Z,4.32
2022-08-31T20:49:03.258Z,5.68
2022-08-31T20:54:01.479Z,4.43
2022-08-31T20:59:00.265Z,4.75
2022-08-31T21:03:59.795Z,4.72
2022-08-31T21:08:57.905Z,4.85
2022-08-31T21:13:56.910Z,5.30
2022-08-31T21:18:55.074Z,4.90
2022-08-31T21:23:54.597Z,4.78
2022-08-31T21:28:54.290Z,4.50
2022-08-31T21:33:54.262Z,4.75
2022-08-31T21:38:55.022Z,5.65
2022-08-31T21:43:53.246Z,6.30
2022-08-31T21:48:54.030Z,7.15
2022-08-31T21:53:55.702Z,7.10
2022-08-31T21:58:54.035Z,7.03
2022-08-31T22:03:56.194Z,7.18
2022-08-31T22:09:00.596Z,7.13
2022-08-31T22:13:59.945Z,7.63
2022-08-31T22:19:01.296Z,6.70
2022-08-31T22:24:04.804Z,7.72
2022-08-31T22:29:03.234Z,7.03
2022-08-31T22:34:01.627Z,6.93
2022-08-31T22:39:03.515Z,7.63
2022-08-31T22:44:02.227Z,7.70
2022-08-31T22:49:01.051Z,7.35
2022-08-31T22:53:59.803Z,7.55
2022-08-31T22:59:02.636Z,6.75
2022-08-31T23:04:06.938Z,6.38
2022-08-31T23:09:07.904Z,5.65
2022-08-31T23:14:10.477Z,5.55
2022-08-31T23:19:12.572Z,5.95
2022-08-31T23:24:12.896Z,5.40
2022-08-31T23:29:13.691Z,5.57
2022-08-31T23:34:13.207Z,5.70
2022-08-31T23:39:11.620Z,5.28
2022-08-31T23:44:13.325Z,5.82
2022-08-31T23:49:15.484Z,5.65
2022-08-31T23:54:16.552Z,5.82
2022-08-31T23:59:19.172Z,6.05
